首页
METAR-TAF:

METAR-TAF

机场 :

彭德-雅皮特國際機場

皮特尔角城, 瓜德罗普

纬度: 16-16N, 经度: 061-31W, 海拔: 11米

当前天气观测

该预报发布于39分钟前的13:30 UTC
风速7节,风向南转南东,在东转东南之间变化
温度 25°C
湿度 94%
气压 1017 hPa
能見度: 9000
多云层高于800英尺
多云层高于2400英尺
多云层高于3500英尺

METAR: TFFR 201330Z AUTO 15007KT 120V180 9000 BKN008 BKN024 BKN035 25/24 Q1017 TEMPO 10015G25KT 3000 SHRA BKN018TCU

时间: 10:09 (14:09 UTC)

预报

该预报发布于3小时和9分钟前的11:00 UTC
预报有效从20日的 12点(UTC)到 21日的 12点(UTC)
风速10节,风向
能见度10公里或以上
散云层高于2500英尺
几率 30% :
短暂存在
从 20日的 12点(UTC)到 20日的 15点(UTC)
能見度: 4000
散云层高于1800英尺, 塔状积云.
阵雨
短暂存在
从 20日的 15点(UTC)到 21日的 03点(UTC)
风速15节,风向,有时为25节阵风
能見度: 3000
多云层高于1800英尺, 塔状积云.
阵雨
几率 30% :
短暂存在
从 21日的 09点(UTC)到 21日的 12点(UTC)
能見度: 4000
散云层高于1800英尺, 塔状积云.
阵雨

TAF: TFFR 201100Z 2012/2112 10010KT 9999 SCT025 PROB30 TEMPO 2012/2015 4000 SHRA SCT018TCU TEMPO 2015/2103 10015G25KT 3000 SHRA BKN018TCU PROB30 TEMPO 2109/2112 4000 SHRA SCT018TCU

超过4000个机场的气象观测和天气预报(METAR&TAF报告)。

可查询的气象台以黄色和红色小点在地图上表示。

将鼠标移到小点上方,可查看气象台名称。

然后点击查看天气观测和预报。

如需切换地图:点击带黑十字的绿色按钮放大地图;点击带横线的绿色按钮缩小地图;或者点击绿色箭头查看邻近地区的地图。


METAR-TAF: